Terminal Aerodrome Forecast
Issued by NWS Charleston, WV

Current Version | Previous Version | Graphics & Text | Print | Product List | Glossary On
Versions: 1 2 3 4 5 6 7 8 9 10 11 12 13 14 15 16 17 18 19 20 21 22 23 24 25 26
265
FTUS41 KRLX 062116 AAA
TAFHTS
TAF AMD
KHTS 062116Z 0621/0718 16006KT 3SM -RA BR BKN008 OVC012
     FM062300 25007KT P6SM OVC009
     FM070400 28008G15KT P6SM BKN010
     FM071300 VRB03KT P6SM BKN070=

USA.gov is the U.S. government's official web portal to all federal, state and local government web resources and services.